Time;durP1;ratioP1;P1;durP2;ratioP2;P2;SDS_P1;SDS_P2;PMS_P1;PMS_P2;Temp;Humidity;BMP_temperature;BMP_pressure;BME280_temperature;BME280_humidity;BME280_pressure;Samples;Min_cycle;Max_cycle;Signal;HPM_P1;HPM_P2
2023/05/13 06:06:14;;;;;;;4.18;2.47;;;19.80;67.60;;;;;;3672830;23;20063;-75
2023/05/13 06:08:36;;;;;;;5.05;2.70;;;19.80;67.60;;;;;;4076413;28;20046;-74
2023/05/13 06:10:59;;;;;;;3.47;2.30;;;19.80;67.50;;;;;;4088509;28;20059;-75
2023/05/13 06:13:21;;;;;;;5.45;2.75;;;19.80;67.40;;;;;;4096539;28;20050;-75
2023/05/13 06:15:47;;;;;;;3.50;2.20;;;19.80;67.30;;;;;;4094387;28;20501;-75
2023/05/13 06:18:09;;;;;;;5.07;2.50;;;19.80;67.20;;;;;;4091571;28;20110;-74
2023/05/13 06:20:32;;;;;;;4.00;2.40;;;19.70;67.20;;;;;;4084412;28;20461;-75
2023/05/13 06:22:55;;;;;;;3.35;2.03;;;19.80;67.10;;;;;;4099665;28;20062;-69
2023/05/13 06:25:17;;;;;;;3.13;1.73;;;19.70;67.00;;;;;;4093087;28;20039;-69
2023/05/13 06:27:40;;;;;;;4.00;2.10;;;19.70;66.90;;;;;;4093335;28;20127;-68
2023/05/13 06:30:02;;;;;;;3.40;1.70;;;19.70;66.90;;;;;;4090576;28;20977;-69
2023/05/13 06:32:24;;;;;;;3.25;1.60;;;19.70;66.80;;;;;;4094888;28;20027;-69
2023/05/13 06:34:47;;;;;;;2.42;1.60;;;19.70;66.70;;;;;;4036790;23;2659533;-50
2023/05/13 06:37:09;;;;;;;3.90;2.33;;;19.70;66.80;;;;;;4092351;28;20512;-52
2023/05/13 06:39:32;;;;;;;2.72;1.52;;;19.70;66.70;;;;;;4088073;28;20058;-49
2023/05/13 06:41:54;;;;;;;1.73;1.50;;;19.70;66.70;;;;;;4085351;28;20069;-55
2023/05/13 06:44:16;;;;;;;2.30;1.60;;;19.70;66.70;;;;;;4086275;28;20074;-50
2023/05/13 06:46:39;;;;;;;3.20;1.38;;;19.70;66.60;;;;;;4083637;28;20059;-53
2023/05/13 06:49:01;;;;;;;2.90;1.48;;;19.70;66.70;;;;;;4086151;28;20105;-50
2023/05/13 06:51:29;;;;;;;1.98;1.40;;;19.70;66.70;;;;;;4084455;28;20043;-53
2023/05/13 06:53:52;;;;;;;2.63;1.60;;;19.70;66.70;;;;;;4086307;28;20095;-50
2023/05/13 06:56:14;;;;;;;3.75;2.15;;;19.70;67.00;;;;;;4083812;28;20039;-54
2023/05/13 06:58:36;;;;;;;3.85;2.10;;;19.70;67.60;;;;;;4084693;28;20043;-49
2023/05/13 07:00:59;;;;;;;3.70;2.10;;;19.70;67.70;;;;;;4072904;28;20054;-50
2023/05/13 07:03:21;;;;;;;4.15;2.38;;;19.70;67.90;;;;;;4083814;28;20870;-54
2023/05/13 07:05:48;;;;;;;4.05;2.40;;;19.70;68.00;;;;;;4086907;28;20154;-52
2023/05/13 07:08:16;;;;;;;4.57;2.20;;;19.70;67.80;;;;;;4091601;28;20085;-50
2023/05/13 07:10:38;;;;;;;4.25;2.00;;;19.70;67.80;;;;;;4092083;28;20053;-55
2023/05/13 07:13:01;;;;;;;3.22;2.03;;;19.70;67.80;;;;;;4094389;28;20054;-55
2023/05/13 07:15:24;;;;;;;4.85;2.55;;;19.70;67.70;;;;;;4090480;28;20510;-54
2023/05/13 07:17:46;;;;;;;2.65;1.85;;;19.70;67.80;;;;;;4095698;28;20042;-53
2023/05/13 07:20:10;;;;;;;3.55;2.10;;;19.70;67.60;;;;;;4097238;28;20486;-50
2023/05/13 07:22:32;;;;;;;4.38;2.33;;;19.70;67.60;;;;;;4098137;28;20050;-54
2023/05/13 07:24:55;;;;;;;3.00;1.92;;;19.70;67.80;;;;;;4094688;28;20102;-53
2023/05/13 07:27:18;;;;;;;3.90;2.47;;;19.70;67.70;;;;;;4090437;28;20051;-54
2023/05/13 07:29:40;;;;;;;3.78;2.17;;;19.70;67.70;;;;;;4093202;28;20047;-53
2023/05/13 07:32:06;;;;;;;3.65;2.10;;;19.70;67.70;;;;;;4088155;28;20043;-55
2023/05/13 07:34:28;;;;;;;3.78;2.28;;;19.70;67.70;;;;;;4091432;28;20500;-53
2023/05/13 07:36:51;;;;;;;4.10;2.17;;;19.70;67.70;;;;;;4079880;28;20055;-56
2023/05/13 07:39:13;;;;;;;4.00;2.03;;;19.60;67.70;;;;;;4094082;28;20035;-54
2023/05/13 07:41:36;;;;;;;4.03;2.22;;;19.70;67.70;;;;;;4092762;28;20093;-57
2023/05/13 07:43:59;;;;;;;3.47;2.55;;;19.70;67.80;;;;;;4090603;28;20179;-56
2023/05/13 07:46:21;;;;;;;3.85;2.03;;;19.70;67.70;;;;;;4086583;28;20051;-55
2023/05/13 07:48:44;;;;;;;3.25;2.10;;;19.70;67.70;;;;;;4090275;28;20051;-52
2023/05/13 07:51:06;;;;;;;2.97;1.95;;;19.70;67.60;;;;;;4093561;28;20073;-56
2023/05/13 07:53:29;;;;;;;3.45;1.70;;;19.70;67.60;;;;;;4107617;28;20507;-53
2023/05/13 07:55:51;;;;;;;3.58;2.05;;;19.70;67.70;;;;;;4091042;28;20483;-57
2023/05/13 07:58:14;;;;;;;4.35;1.85;;;19.70;67.80;;;;;;4101931;28;20031;-54
2023/05/13 08:00:36;;;;;;;3.17;2.00;;;19.70;67.70;;;;;;4106398;28;21093;-56
2023/05/13 08:02:59;;;;;;;2.78;1.77;;;19.70;67.70;;;;;;4102629;28;20094;-52
2023/05/13 08:05:21;;;;;;;3.03;1.70;;;19.70;67.60;;;;;;4101800;28;21321;-54
2023/05/13 08:07:44;;;;;;;3.05;1.75;;;19.70;67.80;;;;;;4100466;28;20059;-55
2023/05/13 08:10:07;;;;;;;2.58;1.50;;;19.70;67.60;;;;;;4101930;28;20418;-55
2023/05/13 08:12:29;;;;;;;2.78;1.70;;;19.70;67.80;;;;;;4104020;28;20170;-56
2023/05/13 08:14:52;;;;;;;2.08;1.55;;;19.70;67.70;;;;;;4105633;28;20035;-55
2023/05/13 08:17:17;;;;;;;3.05;2.13;;;19.70;67.60;;;;;;4109744;28;20038;-54
2023/05/13 08:19:40;;;;;;;3.17;2.10;;;19.70;67.90;;;;;;4106937;28;20066;-54
2023/05/13 08:22:02;;;;;;;2.08;1.85;;;19.60;67.80;;;;;;4095073;28;20042;-52
2023/05/13 08:24:25;;;;;;;3.08;1.83;;;19.60;67.90;;;;;;4106981;28;20077;-51
2023/05/13 08:26:47;;;;;;;1.92;1.52;;;19.60;68.00;;;;;;4095628;28;20075;-57
2023/05/13 08:29:12;;;;;;;2.38;1.48;;;19.60;68.10;;;;;;4104471;28;20046;-57
2023/05/13 08:31:35;;;;;;;3.75;1.70;;;19.60;67.90;;;;;;4098311;28;20106;-55
2023/05/13 08:33:57;;;;;;;2.70;1.77;;;19.60;68.00;;;;;;4107051;28;20058;-57
2023/05/13 08:36:24;;;;;;;2.75;1.70;;;19.60;68.30;;;;;;4093569;28;20035;-51
2023/05/13 08:38:47;;;;;;;3.67;1.98;;;19.60;68.10;;;;;;4105392;28;20144;-56
2023/05/13 08:41:13;;;;;;;3.17;2.08;;;19.60;68.40;;;;;;4094532;28;20426;-49
2023/05/13 08:43:37;;;;;;;2.45;1.80;;;19.60;68.40;;;;;;4097463;28;20043;-52
2023/05/13 08:46:03;;;;;;;2.33;1.70;;;19.60;68.50;;;;;;4096738;28;20038;-55
2023/05/13 08:48:26;;;;;;;2.03;1.60;;;19.60;68.30;;;;;;4104684;28;20043;-56
2023/05/13 08:50:49;;;;;;;3.28;2.00;;;19.60;68.30;;;;;;4099768;28;20042;-58
2023/05/13 08:53:12;;;;;;;3.28;1.90;;;19.60;68.50;;;;;;4092373;28;20070;-54
2023/05/13 08:55:35;;;;;;;3.03;2.05;;;19.60;68.30;;;;;;4098205;28;20043;-52
2023/05/13 08:57:57;;;;;;;2.58;1.88;;;19.60;68.50;;;;;;4097077;28;20443;-51
2023/05/13 09:00:20;;;;;;;3.13;1.98;;;19.60;68.40;;;;;;4103955;28;20061;-52
2023/05/13 09:02:42;;;;;;;2.50;1.90;;;19.60;68.40;;;;;;4094728;28;20044;-55
2023/05/13 09:05:07;;;;;;;2.67;1.85;;;19.60;68.50;;;;;;4082495;28;20435;-52
2023/05/13 09:07:33;;;;;;;2.53;1.80;;;19.60;68.40;;;;;;4066542;29;20051;-51
2023/05/13 09:09:56;;;;;;;3.80;2.15;;;19.60;68.40;;;;;;4083755;29;20040;-54
2023/05/13 09:12:40;;;;;;;3.58;2.00;;;19.50;68.40;;;;;;4080856;28;20046;-51
2023/05/13 09:15:07;;;;;;;3.60;2.43;;;19.60;68.40;;;;;;4082987;29;20610;-55
2023/05/13 09:17:30;;;;;;;3.03;2.15;;;19.50;68.60;;;;;;4079677;28;20035;-53
2023/05/13 09:19:52;;;;;;;2.92;2.05;;;19.60;68.60;;;;;;4086044;29;20048;-56
2023/05/13 09:22:18;;;;;;;4.50;2.65;;;19.50;68.60;;;;;;4084512;29;20040;-55
2023/05/13 09:24:54;;;;;;;3.60;2.35;;;19.50;68.40;;;;;;4083898;29;20043;-55
2023/05/13 09:27:35;;;;;;;4.63;2.50;;;19.50;68.50;;;;;;4082661;29;20058;-53
2023/05/13 09:30:00;;;;;;;3.08;2.40;;;19.60;68.70;;;;;;4080500;28;20047;-51
2023/05/13 09:32:23;;;;;;;4.38;2.58;;;19.60;68.50;;;;;;4056113;29;20039;-56
2023/05/13 09:34:48;;;;;;;3.28;2.60;;;19.60;68.60;;;;;;4067673;29;20086;-57
2023/05/13 09:37:17;;;;;;;3.55;2.70;;;19.60;68.80;;;;;;4060983;29;20048;-53
2023/05/13 09:39:42;;;;;;;4.00;2.75;;;19.50;68.70;;;;;;4049938;29;20444;-56
2023/05/13 09:42:05;;;;;;;4.38;3.33;;;19.50;68.70;;;;;;4070592;29;20046;-55
2023/05/13 09:44:27;;;;;;;5.20;2.72;;;19.50;68.80;;;;;;4074906;28;20039;-54
2023/05/13 09:46:54;;;;;;;4.28;3.10;;;19.60;68.70;;;;;;4075106;28;20491;-54
2023/05/13 09:49:17;;;;;;;4.78;2.75;;;19.50;68.70;;;;;;4070164;29;20095;-54
2023/05/13 09:51:39;;;;;;;4.97;3.00;;;19.60;68.80;;;;;;4061809;29;20071;-55
2023/05/13 09:54:08;;;;;;;3.80;2.78;;;19.50;68.80;;;;;;4071362;29;20071;-52
2023/05/13 09:56:32;;;;;;;3.72;2.70;;;19.50;68.70;;;;;;4068290;29;21128;-54
2023/05/13 09:58:54;;;;;;;3.67;2.90;;;19.50;68.80;;;;;;4066063;29;20608;-55
2023/05/13 10:01:17;;;;;;;4.65;3.08;;;19.50;68.60;;;;;;4070405;29;20050;-56
2023/05/13 10:03:40;;;;;;;3.83;2.85;;;19.50;68.80;;;;;;4060159;28;20052;-53
2023/05/13 10:06:04;;;;;;;4.22;3.20;;;19.50;68.80;;;;;;4084780;28;20051;-55
2023/05/13 10:08:27;;;;;;;4.00;2.88;;;19.50;68.80;;;;;;4084701;28;20478;-56
2023/05/13 10:10:53;;;;;;;4.10;2.92;;;19.50;68.90;;;;;;4083783;28;20151;-51
2023/05/13 10:13:18;;;;;;;4.35;3.13;;;19.50;68.90;;;;;;4086128;28;20110;-55
2023/05/13 10:15:51;;;;;;;4.00;3.03;;;19.50;69.00;;;;;;4086729;28;20697;-53
2023/05/13 10:18:15;;;;;;;4.75;3.13;;;19.50;68.80;;;;;;4084664;28;20054;-54
2023/05/13 10:22:44;;;;;;;3.50;2.90;;;19.50;68.80;;;;;;4089425;28;20051;-52
2023/05/13 10:25:07;;;;;;;4.00;3.10;;;19.50;68.80;;;;;;4087561;28;20039;-48
2023/05/13 10:27:32;;;;;;;4.13;3.03;;;19.50;68.90;;;;;;4089053;28;20074;-47
2023/05/13 10:29:55;;;;;;;4.60;3.28;;;19.50;68.90;;;;;;4086788;28;20770;-50
2023/05/13 10:32:17;;;;;;;4.63;3.00;;;19.50;68.90;;;;;;4093728;28;20454;-51
2023/05/13 10:34:42;;;;;;;4.40;2.92;;;19.50;68.90;;;;;;4082426;28;20540;-49
2023/05/13 10:37:33;;;;;;;3.80;3.05;;;19.50;68.90;;;;;;4098500;28;20038;-51
2023/05/13 10:40:05;;;;;;;3.85;2.85;;;19.50;69.00;;;;;;4086162;28;20039;-48
2023/05/13 10:42:41;;;;;;;4.88;3.17;;;19.50;69.00;;;;;;4100218;28;20462;-51
2023/05/13 10:45:04;;;;;;;4.05;3.10;;;19.50;68.90;;;;;;4095322;28;20509;-49
2023/05/13 10:47:30;;;;;;;3.50;2.83;;;19.50;68.90;;;;;;4099194;28;20327;-49
2023/05/13 10:49:52;;;;;;;3.78;3.05;;;19.50;69.00;;;;;;4101227;28;20540;-50
2023/05/13 10:52:15;;;;;;;5.35;3.20;;;19.50;69.00;;;;;;4099661;28;20507;-48
2023/05/13 10:54:40;;;;;;;5.15;3.42;;;19.50;69.00;;;;;;4098741;28;20409;-52
2023/05/13 10:57:03;;;;;;;3.83;3.13;;;19.50;69.00;;;;;;4101114;28;20089;-52
2023/05/13 10:59:29;;;;;;;4.47;3.35;;;19.50;69.10;;;;;;4084696;29;20048;-48
2023/05/13 11:01:51;;;;;;;4.28;3.33;;;19.40;68.90;;;;;;4096929;28;20581;-48
2023/05/13 11:04:21;;;;;;;4.65;3.45;;;19.40;69.00;;;;;;4097233;28;20039;-48
2023/05/13 11:06:45;;;;;;;5.30;3.50;;;19.40;69.00;;;;;;4096016;28;20151;-49
2023/05/13 11:09:11;;;;;;;4.30;3.10;;;19.40;69.00;;;;;;4097226;28;20502;-50
2023/05/13 11:11:37;;;;;;;5.53;3.72;;;19.40;68.90;;;;;;4083671;29;20423;-52
2023/05/13 11:13:59;;;;;;;4.03;3.22;;;19.40;69.00;;;;;;4082428;29;20040;-48
2023/05/13 11:16:22;;;;;;;4.25;3.38;;;19.40;69.00;;;;;;4084124;29;20094;-51
2023/05/13 11:18:45;;;;;;;5.35;3.63;;;19.40;68.50;;;;;;4090877;29;20040;-47
2023/05/13 11:21:08;;;;;;;4.28;3.50;;;19.40;69.00;;;;;;4086289;29;20115;-50
2023/05/13 11:23:52;;;;;;;4.15;3.40;;;19.40;69.00;;;;;;4084086;29;20047;-50
2023/05/13 11:26:16;;;;;;;4.78;3.45;;;19.40;69.00;;;;;;4088264;29;20110;-54
2023/05/13 11:28:59;;;;;;;4.20;3.38;;;19.40;69.10;;;;;;4084873;29;20047;-49
2023/05/13 11:31:22;;;;;;;4.57;3.47;;;19.40;68.90;;;;;;4079205;29;20156;-51
2023/05/13 11:34:12;;;;;;;4.63;3.67;;;19.40;68.90;;;;;;4090706;29;20051;-52
2023/05/13 11:36:39;;;;;;;4.80;3.65;;;19.40;69.10;;;;;;4086448;28;20040;-49
2023/05/13 11:39:13;;;;;;;4.78;3.80;;;19.40;69.00;;;;;;4086831;28;20051;-46
2023/05/13 11:41:36;;;;;;;4.80;3.60;;;19.40;69.00;;;;;;4086036;29;20558;-48
2023/05/13 11:44:02;;;;;;;4.22;3.10;;;19.40;69.00;;;;;;4084523;29;20062;-49
2023/05/13 11:46:25;;;;;;;5.28;3.55;;;19.40;69.00;;;;;;4080685;29;20483;-48
2023/05/13 11:48:47;;;;;;;5.18;3.63;;;19.40;69.00;;;;;;4080869;29;20055;-47
2023/05/13 11:51:10;;;;;;;4.70;3.75;;;19.40;69.00;;;;;;4088372;29;20075;-46
2023/05/13 11:53:33;;;;;;;4.78;3.58;;;19.40;69.10;;;;;;4087776;29;20181;-48
2023/05/13 11:55:56;;;;;;;3.78;3.15;;;19.40;69.00;;;;;;4083301;28;20039;-48
2023/05/13 11:58:21;;;;;;;4.77;3.50;;;19.40;69.10;;;;;;4082376;29;20054;-53
2023/05/13 12:00:44;;;;;;;4.70;3.42;;;19.40;69.10;;;;;;4083406;29;20028;-48
2023/05/13 12:03:12;;;;;;;4.30;3.47;;;19.40;69.10;;;;;;4088074;29;20058;-49
2023/05/13 12:05:34;;;;;;;4.28;3.28;;;19.40;69.10;;;;;;4081947;28;20845;-51
2023/05/13 12:07:57;;;;;;;4.80;3.53;;;19.30;69.00;;;;;;4087046;29;20172;-47
2023/05/13 12:10:20;;;;;;;4.55;3.22;;;19.30;69.00;;;;;;4084299;28;20035;-47
2023/05/13 12:12:44;;;;;;;4.40;3.38;;;19.30;69.10;;;;;;4080226;29;20070;-50
2023/05/13 12:15:12;;;;;;;4.65;3.13;;;19.30;69.00;;;;;;4086960;29;20043;-48
2023/05/13 12:17:35;;;;;;;4.65;3.80;;;19.30;69.10;;;;;;4084055;29;20152;-50
2023/05/13 12:20:22;;;;;;;3.55;2.97;;;19.30;69.10;;;;;;4082518;29;20123;-51
2023/05/13 12:22:44;;;;;;;5.10;3.72;;;19.30;69.10;;;;;;4088872;29;20126;-47
2023/05/13 12:25:34;;;;;;;3.40;2.85;;;19.30;69.20;;;;;;4081291;29;20122;-50
2023/05/13 12:27:58;;;;;;;4.07;3.30;;;19.30;69.00;;;;;;4079212;29;20437;-48
2023/05/13 12:30:20;;;;;;;3.75;3.10;;;19.30;69.10;;;;;;4087123;29;20070;-47
2023/05/13 12:32:46;;;;;;;4.18;3.03;;;19.30;69.00;;;;;;4086786;29;20749;-50
2023/05/13 12:35:17;;;;;;;3.63;2.92;;;19.30;69.10;;;;;;4087932;29;20027;-47
2023/05/13 12:37:39;;;;;;;3.63;3.03;;;19.30;69.30;;;;;;4078870;29;20036;-50
2023/05/13 12:40:12;;;;;;;3.97;3.00;;;19.30;69.20;;;;;;4084213;29;20038;-49
2023/05/13 12:42:35;;;;;;;3.88;3.30;;;19.30;69.20;;;;;;4078597;29;20106;-47
2023/05/13 12:44:57;;;;;;;3.63;2.95;;;19.20;69.20;;;;;;4064109;29;20044;-48
2023/05/13 12:47:21;;;;;;;4.65;3.15;;;19.20;69.20;;;;;;4083151;29;20070;-51
2023/05/13 12:49:59;;;;;;;3.78;2.80;;;19.20;69.20;;;;;;4085003;29;20037;-46
2023/05/13 12:52:22;;;;;;;4.22;3.10;;;19.20;69.10;;;;;;4082298;29;21376;-46
2023/05/13 12:54:45;;;;;;;4.55;3.00;;;19.20;69.20;;;;;;4084182;29;20477;-46
2023/05/13 12:57:10;;;;;;;12.20;3.38;;;19.20;69.10;;;;;;4083245;29;20028;-60
2023/05/13 12:59:33;;;;;;;5.15;3.30;;;19.20;69.70;;;;;;4086276;29;20047;-60
2023/05/13 13:01:56;;;;;;;5.65;2.88;;;19.20;69.80;;;;;;4081302;29;20039;-60
2023/05/13 13:04:18;;;;;;;5.50;3.30;;;19.20;69.30;;;;;;4078980;29;20079;-60
2023/05/13 13:06:41;;;;;;;8.05;2.80;;;19.20;69.80;;;;;;4077707;29;20043;-52
2023/05/13 13:09:04;;;;;;;6.13;2.85;;;19.20;70.10;;;;;;4085787;29;20511;-50
2023/05/13 13:11:27;;;;;;;5.40;2.53;;;19.20;70.20;;;;;;4080190;29;20034;-53
2023/05/13 13:13:50;;;;;;;4.45;2.30;;;19.30;70.20;;;;;;4080648;29;20119;-55
2023/05/13 13:16:12;;;;;;;6.38;2.28;;;19.20;70.20;;;;;;4082900;29;20578;-53
2023/05/13 13:18:35;;;;;;;8.13;2.55;;;19.20;70.20;;;;;;4060366;29;20044;-57
2023/05/13 13:21:00;;;;;;;3.72;2.10;;;19.20;70.20;;;;;;4087111;29;20483;-56
2023/05/13 13:23:24;;;;;;;4.28;2.10;;;19.20;70.30;;;;;;4087268;29;20154;-59
2023/05/13 13:25:59;;;;;;;3.75;2.30;;;19.30;70.30;;;;;;4083537;29;20039;-54
2023/05/13 13:28:30;;;;;;;3.78;2.05;;;19.30;70.20;;;;;;4085546;29;20044;-56
2023/05/13 13:30:52;;;;;;;3.38;2.00;;;19.30;70.10;;;;;;4086255;29;20039;-58
2023/05/13 13:33:16;;;;;;;2.90;1.85;;;19.30;70.20;;;;;;4082727;29;20039;-59
2023/05/13 13:35:38;;;;;;;15.57;2.72;;;19.30;70.20;;;;;;4068935;29;20059;-54
2023/05/13 13:38:01;;;;;;;4.60;1.88;;;19.30;70.10;;;;;;4080097;28;20047;-58
2023/05/13 13:40:23;;;;;;;4.47;1.65;;;19.40;70.20;;;;;;4065015;29;20389;-55
2023/05/13 13:42:46;;;;;;;2.63;1.85;;;19.30;70.20;;;;;;4087491;29;20031;-60
2023/05/13 13:45:09;;;;;;;6.65;2.08;;;19.40;70.30;;;;;;4084013;29;20126;-59
2023/05/13 13:47:34;;;;;;;2.97;1.70;;;19.40;70.20;;;;;;4064825;29;20048;-56
2023/05/13 13:49:59;;;;;;;4.63;2.20;;;19.40;70.40;;;;;;4079613;29;20039;-56
2023/05/13 13:52:25;;;;;;;6.05;2.03;;;19.40;70.30;;;;;;4082428;29;20074;-54
2023/05/13 13:54:47;;;;;;;2.45;1.73;;;19.40;70.20;;;;;;4078074;29;20031;-59
2023/05/13 13:57:13;;;;;;;4.38;1.95;;;19.40;70.20;;;;;;4078998;29;20036;-59
2023/05/13 13:59:35;;;;;;;5.85;1.88;;;19.40;70.30;;;;;;4078139;28;20356;-60
2023/05/13 14:01:58;;;;;;;7.55;1.90;;;19.40;70.60;;;;;;4066163;29;20698;-59
2023/05/13 14:04:22;;;;;;;2.78;1.73;;;19.40;70.30;;;;;;4086197;29;20486;-61
2023/05/13 14:06:47;;;;;;;;;;;19.40;70.30;;;;;;4081328;29;20418;-60
2023/05/13 14:09:09;;;;;;;3.55;1.60;;;19.40;70.30;;;;;;4083367;28;19916;-54
2023/05/13 14:11:32;;;;;;;3.35;1.50;;;19.40;70.30;;;;;;4059580;29;20036;-60
2023/05/13 14:13:58;;;;;;;4.63;1.80;;;19.40;70.30;;;;;;4077567;29;20587;-59
2023/05/13 14:16:20;;;;;;;9.27;2.35;;;19.40;70.50;;;;;;4082067;29;20094;-57
2023/05/13 14:18:43;;;;;;;4.28;1.60;;;19.40;70.80;;;;;;4085454;28;20027;-57
2023/05/13 14:21:05;;;;;;;11.20;3.60;;;19.40;70.70;;;;;;4085592;29;20102;-60
2023/05/13 14:23:28;;;;;;;6.93;2.33;;;19.40;70.70;;;;;;4075927;29;20094;-60
2023/05/13 14:25:53;;;;;;;7.20;1.83;;;19.40;70.80;;;;;;4083482;29;20051;-60
2023/05/13 14:28:16;;;;;;;3.45;1.48;;;19.40;70.60;;;;;;4083687;29;20119;-61
2023/05/13 14:30:39;;;;;;;4.67;1.93;;;19.40;70.40;;;;;;4078039;29;20032;-60
2023/05/13 14:33:01;;;;;;;2.30;1.52;;;19.40;70.30;;;;;;4080452;29;20106;-60
2023/05/13 14:35:27;;;;;;;2.20;1.55;;;19.40;70.20;;;;;;4087815;29;20043;-58
2023/05/13 14:37:49;;;;;;;2.40;1.50;;;19.40;70.10;;;;;;4077340;29;20523;-59
2023/05/13 14:40:12;;;;;;;3.00;1.60;;;19.40;70.00;;;;;;4088751;29;20134;-59
2023/05/13 14:42:37;;;;;;;3.50;1.60;;;19.40;70.00;;;;;;4085466;28;20174;-60
2023/05/13 14:44:59;;;;;;;1.88;1.23;;;19.40;70.00;;;;;;4077477;29;20044;-59
2023/05/13 14:47:22;;;;;;;1.95;1.33;;;19.40;70.10;;;;;;4079756;29;20052;-58
2023/05/13 14:49:45;;;;;;;2.85;1.27;;;19.40;70.10;;;;;;4076185;29;20048;-59
2023/05/13 14:52:07;;;;;;;3.25;1.65;;;19.40;70.20;;;;;;4079862;29;20040;-59
2023/05/13 14:54:37;;;;;;;2.72;1.55;;;19.40;70.00;;;;;;4079420;29;20031;-60
2023/05/13 14:56:59;;;;;;;2.15;1.40;;;19.40;70.00;;;;;;4079551;29;20035;-61
2023/05/13 14:59:22;;;;;;;1.73;1.30;;;19.30;70.20;;;;;;4080112;29;20483;-60
2023/05/13 15:01:44;;;;;;;2.53;1.40;;;19.30;70.20;;;;;;4080310;28;20461;-60
2023/05/13 15:04:07;;;;;;;1.70;1.35;;;19.30;70.00;;;;;;4078451;29;20135;-59
2023/05/13 15:06:29;;;;;;;2.08;1.60;;;19.30;69.90;;;;;;4080847;29;20415;-59
2023/05/13 15:08:52;;;;;;;3.03;2.03;;;19.30;69.90;;;;;;4073058;29;20043;-59
2023/05/13 15:11:14;;;;;;;1.50;1.30;;;19.30;69.80;;;;;;4084025;29;20067;-59
2023/05/13 15:13:38;;;;;;;1.95;1.33;;;19.30;69.90;;;;;;4078413;29;20044;-60
2023/05/13 15:16:02;;;;;;;1.42;1.33;;;19.30;69.80;;;;;;4076878;29;20448;-59
2023/05/13 15:18:24;;;;;;;2.22;1.45;;;19.30;69.90;;;;;;4089036;29;20040;-59
2023/05/13 15:20:47;;;;;;;2.15;1.40;;;19.30;70.10;;;;;;4078869;29;20079;-59
2023/05/13 15:23:09;;;;;;;3.60;1.40;;;19.30;70.30;;;;;;4075262;29;20076;-60
2023/05/13 15:25:31;;;;;;;1.73;1.42;;;19.30;70.20;;;;;;4083626;29;20043;-60
2023/05/13 15:27:54;;;;;;;2.35;1.40;;;19.30;70.30;;;;;;4077748;29;20060;-59
2023/05/13 15:30:17;;;;;;;3.65;1.50;;;19.30;70.20;;;;;;4071492;29;20452;-60
2023/05/13 15:32:39;;;;;;;2.80;1.38;;;19.30;70.30;;;;;;4088160;29;20062;-58
2023/05/13 15:35:01;;;;;;;4.25;1.38;;;19.30;70.30;;;;;;4095614;28;20041;-59
2023/05/13 15:37:24;;;;;;;3.15;1.50;;;19.30;70.30;;;;;;4086513;29;20453;-59
2023/05/13 15:39:46;;;;;;;1.63;1.08;;;19.30;70.30;;;;;;4089150;29;20527;-59
2023/05/13 15:42:09;;;;;;;2.40;1.40;;;19.30;70.20;;;;;;4076002;29;20043;-60
2023/05/13 15:44:31;;;;;;;2.58;1.30;;;19.30;70.20;;;;;;4082968;29;20118;-59
2023/05/13 15:46:54;;;;;;;2.50;1.35;;;19.30;69.90;;;;;;4088842;29;20047;-59
2023/05/13 15:49:16;;;;;;;1.95;1.42;;;19.30;69.90;;;;;;4081403;29;20066;-59
2023/05/13 15:51:39;;;;;;;1.77;1.33;;;19.30;69.90;;;;;;4083727;29;20048;-60
2023/05/13 15:54:01;;;;;;;1.70;1.17;;;19.30;69.80;;;;;;4087742;28;20140;-59
2023/05/13 15:56:24;;;;;;;2.75;1.35;;;19.30;69.90;;;;;;4080785;29;20043;-60
2023/05/13 15:58:47;;;;;;;1.23;1.13;;;19.30;69.80;;;;;;4085478;29;20039;-60
2023/05/13 16:01:09;;;;;;;1.77;1.10;;;19.20;69.70;;;;;;4080532;29;20036;-59
2023/05/13 16:03:32;;;;;;;1.40;1.02;;;19.20;69.80;;;;;;4083435;29;20074;-60
2023/05/13 16:05:54;;;;;;;2.72;1.27;;;19.20;69.90;;;;;;4077363;29;20124;-60
2023/05/13 16:08:17;;;;;;;2.20;1.20;;;19.20;70.20;;;;;;4082808;29;20441;-60
2023/05/13 16:10:39;;;;;;;2.40;1.52;;;19.20;70.20;;;;;;4079970;29;20066;-60
2023/05/13 16:13:02;;;;;;;1.25;1.05;;;19.20;70.30;;;;;;4083009;29;20040;-60
2023/05/13 16:15:24;;;;;;;2.08;1.27;;;19.20;70.20;;;;;;4081517;29;20043;-60
2023/05/13 16:17:47;;;;;;;3.25;1.10;;;19.20;70.10;;;;;;4084631;29;20076;-60
2023/05/13 16:20:10;;;;;;;0.80;0.80;;;19.20;70.10;;;;;;4065095;29;20099;-60
2023/05/13 16:22:36;;;;;;;1.52;1.23;;;19.20;70.00;;;;;;4064283;29;20055;-60
2023/05/13 16:25:05;;;;;;;1.20;1.00;;;19.20;70.00;;;;;;4088688;29;20039;-60
2023/05/13 16:27:31;;;;;;;2.15;1.25;;;19.20;69.90;;;;;;4085030;29;20126;-62
2023/05/13 16:29:53;;;;;;;1.50;1.08;;;19.20;69.80;;;;;;4083492;29;20066;-60
2023/05/13 16:32:16;;;;;;;2.13;1.02;;;19.30;70.00;;;;;;4081385;29;20070;-60
2023/05/13 16:34:38;;;;;;;1.50;1.17;;;19.20;69.70;;;;;;4081694;29;20042;-59
2023/05/13 16:37:01;;;;;;;1.67;1.13;;;19.20;69.70;;;;;;4080130;29;20559;-62
2023/05/13 16:39:23;;;;;;;4.05;1.38;;;19.20;69.60;;;;;;4065358;28;20091;-61
2023/05/13 16:41:45;;;;;;;1.23;0.90;;;19.20;69.50;;;;;;4083209;29;20054;-62
2023/05/13 16:44:08;;;;;;;1.80;1.20;;;19.20;69.60;;;;;;4079974;29;20028;-62
2023/05/13 16:46:34;;;;;;;2.08;1.52;;;19.20;69.70;;;;;;4080443;29;20468;-62
2023/05/13 16:48:56;;;;;;;1.52;1.15;;;19.20;69.50;;;;;;4089553;29;20042;-62
2023/05/13 16:51:19;;;;;;;1.50;1.13;;;19.20;69.60;;;;;;4079739;29;20040;-61
2023/05/13 16:53:41;;;;;;;1.83;1.30;;;19.20;69.70;;;;;;4085306;29;20079;-61
2023/05/13 16:56:03;;;;;;;1.50;1.10;;;19.10;69.70;;;;;;4080876;29;20057;-59
2023/05/13 16:58:26;;;;;;;4.13;1.42;;;19.10;69.60;;;;;;4084315;29;20494;-59
2023/05/13 17:00:49;;;;;;;1.80;1.13;;;19.20;70.00;;;;;;4083258;28;20050;-59
2023/05/13 17:03:12;;;;;;;3.13;1.02;;;19.20;70.00;;;;;;4080538;29;20043;-59
2023/05/13 17:05:35;;;;;;;1.90;1.35;;;19.10;70.00;;;;;;4078424;29;20081;-59
2023/05/13 17:07:57;;;;;;;2.60;1.50;;;19.10;70.10;;;;;;4085134;29;20407;-59
2023/05/13 17:10:20;;;;;;;2.63;1.40;;;19.10;69.90;;;;;;4088903;29;20072;-58
2023/05/13 17:12:42;;;;;;;3.15;1.35;;;19.20;69.90;;;;;;4086322;29;20051;-59
2023/05/13 17:15:05;;;;;;;2.78;1.20;;;19.10;69.80;;;;;;4087697;28;20031;-59
2023/05/13 17:17:28;;;;;;;3.53;1.50;;;19.20;69.80;;;;;;4078909;29;20124;-57
2023/05/13 17:19:50;;;;;;;1.60;1.10;;;19.10;69.70;;;;;;4084941;29;20118;-55
2023/05/13 17:22:13;;;;;;;2.22;1.20;;;19.10;69.70;;;;;;4082612;29;20578;-59
2023/05/13 17:24:37;;;;;;;1.65;1.20;;;19.10;69.60;;;;;;4083321;29;20047;-58
2023/05/13 17:26:59;;;;;;;1.60;1.05;;;19.10;70.40;;;;;;4081368;29;20067;-60
2023/05/13 17:29:24;;;;;;;1.63;1.17;;;19.10;69.80;;;;;;4080166;29;20055;-59
2023/05/13 17:31:48;;;;;;;1.50;1.25;;;19.10;69.60;;;;;;4088823;29;20483;-58
2023/05/13 17:34:11;;;;;;;1.75;1.08;;;19.10;69.70;;;;;;4082954;29;20071;-58
2023/05/13 17:36:33;;;;;;;2.20;1.25;;;19.10;69.70;;;;;;4063581;29;20558;-57
2023/05/13 17:38:55;;;;;;;1.92;1.10;;;19.10;70.20;;;;;;4083552;29;20476;-59
2023/05/13 17:41:18;;;;;;;2.55;1.33;;;19.10;69.70;;;;;;4077031;29;20131;-59
2023/05/13 17:43:40;;;;;;;1.83;1.15;;;19.00;69.70;;;;;;4090038;28;20410;-59
2023/05/13 17:46:03;;;;;;;1.60;1.20;;;19.00;70.20;;;;;;4084426;29;20470;-59
2023/05/13 17:48:26;;;;;;;1.67;1.23;;;19.00;69.60;;;;;;4082109;29;20487;-60
2023/05/13 17:50:48;;;;;;;1.40;1.00;;;19.00;69.70;;;;;;4078642;29;20468;-59
2023/05/13 17:53:11;;;;;;;2.15;1.40;;;19.00;69.80;;;;;;4078271;29;20046;-59
2023/05/13 17:55:33;;;;;;;1.35;1.13;;;19.00;69.70;;;;;;4080525;29;20058;-60
2023/05/13 17:57:57;;;;;;;1.10;1.00;;;18.90;69.50;;;;;;4079564;29;20055;-59
2023/05/13 18:00:20;;;;;;;2.22;1.52;;;18.90;69.90;;;;;;4080996;29;20351;-57
2023/05/13 18:02:43;;;;;;;1.73;1.17;;;18.90;69.90;;;;;;4083685;29;20495;-59
2023/05/13 18:05:09;;;;;;;1.70;1.13;;;18.90;69.80;;;;;;4085018;29;20558;-59
2023/05/13 18:07:32;;;;;;;1.80;1.20;;;18.90;69.90;;;;;;4078679;29;20719;-59
2023/05/13 18:10:15;;;;;;;1.42;1.10;;;18.90;70.00;;;;;;4077721;29;20042;-61
2023/05/13 18:12:37;;;;;;;1.42;1.05;;;18.90;69.90;;;;;;4080713;29;20146;-59
2023/05/13 18:15:00;;;;;;;2.63;1.23;;;18.90;69.80;;;;;;4082645;29;20059;-58
2023/05/13 18:17:22;;;;;;;1.88;1.10;;;18.90;69.70;;;;;;4087931;29;20459;-58
2023/05/13 18:19:45;;;;;;;1.75;1.27;;;18.90;69.80;;;;;;4085895;29;20070;-58
2023/05/13 18:22:08;;;;;;;1.90;1.20;;;18.90;69.70;;;;;;4085727;28;20493;-58
2023/05/13 18:24:30;;;;;;;1.48;1.20;;;18.90;69.70;;;;;;4090200;29;20126;-54
2023/05/13 18:26:52;;;;;;;2.33;1.40;;;18.90;69.70;;;;;;4070934;29;20520;-56
2023/05/13 18:29:15;;;;;;;1.48;1.08;;;18.90;69.60;;;;;;4078356;29;20035;-56
2023/05/13 18:31:37;;;;;;;1.45;1.20;;;18.90;69.60;;;;;;4078320;29;20232;-56
2023/05/13 18:34:00;;;;;;;2.03;1.40;;;18.80;69.70;;;;;;4084788;29;20039;-54
2023/05/13 18:36:23;;;;;;;1.40;1.08;;;18.80;69.70;;;;;;4072286;28;20036;-58
2023/05/13 18:38:46;;;;;;;1.38;1.10;;;18.80;69.50;;;;;;4081692;29;20614;-58